Eduardo Fernandes

Olheiro - Sport Recife
28 Out 2027
Quinta-feira
Processo

Personalidade

Adaptabilidade (5) Ambição (7) Controvérsia (10) Lealdade (15) Pressão (1) Profissionalismo (9) Espírito Esportivo (6) Temperamento (12)

Perfil

Estilo de Treinamento Democrático
Licença Nacional A
Determinação 6
Gestão de Pessoas 7
Motivação 9
Disciplina 8
Satisfação no Trabalho
100%
Fadiga
0%
Função Olheiro
Salário 30.3K p/s
Contrato 14.03.2028

Desempenho

Comportamento Bom
Eficácia do Treinamento
48%
Desenvolvimento do Jogador
40%
Prevenção de Lesões
50%
Implementação Tática
35%

Eventos Recentes

Participou de uma reunião de recrutamento agora
Participou de uma reunião de recrutamento agora
Recomendou um alvo de transferência agora
Recomendou um alvo de transferência agora
Recomendou um alvo de transferência 7d atrás
Avaliou um jogador 7d atrás
Avaliou um jogador 7d atrás
Avaliou um jogador 7d atrás

Monitorando agora

110
Jogador Clube Status Habilidade Confiança Observado Última observação Último voto
Archie Gray Derby County Ativo 147 / 155 40% 2 27.10.2027 -
Denilson Santos Sporting CP Ativo 99 / 108 40% 2 27.10.2027 -
Tiago Freitas Benfica Ativo 118 / 122 40% 4 26.10.2027 -
Eduardo Felicíssimo Sporting CP Ativo 120 / 123 40% 5 26.10.2027 -
Giovanni Leoni Bradford City Ativo 147 / 136 40% 1 26.10.2027 -
Mauro Carrizo Atlético Tucumán Ativo 104 / 106 40% 3 23.10.2027 -
Mikkel Hope Haugesund Ativo 96 / 103 40% 2 23.10.2027 -
Myles Lewis-Skelly Birmingham Ativo 148 / 153 40% 2 23.10.2027 -
Christos Mouzakitis Hull City Ativo 130 / 145 40% 2 21.10.2027 -
Julián Bazán Philadelphia Union Ativo 116 / 114 40% 1 21.10.2027 -
Felipe Obradovich Ferro Carril Oeste Ativo 110 / 117 40% 1 21.10.2027 -
João Teixeira Porto Ativo 118 / 126 40% 3 19.10.2027 -
Bahia Criciuma Ativo 119 / 126 40% 1 19.10.2027 -
Marvelous Freedom Ikorodu City Ativo 98 / 93 40% 4 17.10.2027 -
Mads Bomholt Stabaek Ativo 115 / 107 40% 2 16.10.2027 -
Ricky Atletico Venezuela Ativo 95 / 101 40% 1 16.10.2027 -
Bernardo Lima Porto Ativo 97 / 114 40% 4 15.10.2027 -
Ayden Heaven Luton Town Ativo 142 / 147 40% 1 15.10.2027 -
Gonçalo Oliveira Benfica Ativo 112 / 117 40% 6 14.10.2027 -
David Damboama El-Kanemi Warriors Ativo 95 / 84 40% 2 14.10.2027 -
Josh King Chelsea Ativo 150 / 155 40% 2 12.10.2027 -
Lucas Camejo River Plate Ativo 86 / 85 40% 2 12.10.2027 -
Godwin Oham Warri Wolves Ativo 86 / 83 40% 1 11.10.2027 -
Samuel Posada Leones Ativo 82 / 89 40% 1 09.10.2027 -
Martim Cunha Porto Ativo 108 / 120 40% 2 06.10.2027 -
Pablo Lúcio Bristol City Ativo 106 / 113 40% 1 06.10.2027 -
Figueiredo Sampaio Correa Ativo 88 / 101 40% 1 06.09.2027 -
Tyson Pearce St. Louis CITY SC Ativo 96 / 103 40% 1 06.09.2027 -
Ignacio Fernández Boston River Ativo 88 / 98 40% 1 06.09.2027 -
Lucas Wasilewsky Paysandu Relatório pronto 111 / 102 72% 1 12.07.2027 -
Caleb Yirenkyi Coventry City Ativo 145 / 147 40% 2 21.06.2027 -
Loum Tchaouna Bolton Wanderers Relatório pronto 134 / 138 67% 1 21.06.2027 -
Johan Manzambi Newcastle United Ativo 138 / 141 40% 1 21.06.2027 -
Jofre Torrents Ajax Ativo 122 / 132 40% 7 14.06.2027 -
João Capucho Benfica Ativo 102 / 98 40% 3 14.06.2027 -
Daniel Kelly Oxford United Ativo 113 / 126 40% 1 14.06.2027 -
Zane Albarus Cambridge United Ativo 85 / 107 40% 2 01.06.2027 -
Yussif Saidu Zaragoza Ativo 113 / 127 40% 3 01.06.2027 -
Konstantin Tyukavin Inter Negociando 132 / 133 66% 1 01.06.2027 -
Bitello SC Freiburg Ativo 135 / 135 68% 1 01.06.2027 Aprovar
Facundo Torres LOSC Lille Ativo 134 / 134 67% 1 01.06.2027 Aprovar
Yuri Alberto Köln Negociando 140 / 141 67% 1 01.06.2027 -
Franculino Crystal Palace Negociando 136 / 140 67% 1 01.06.2027 -
Leandro Martins Benfica Ativo 105 / 105 40% 1 30.05.2027 -
Dylan Lawlor Cardiff City Ativo 106 / 114 40% 7 29.05.2027 -
Riley Owen Trento Ativo 92 / 111 40% 2 29.05.2027 -
Ernie Weaver AFC Wimbledon Ativo 110 / 112 40% 4 27.05.2027 -
Matías Gómez Granada Ativo 119 / 124 40% 2 26.05.2027 -
Simone Kosijer Triestina Ativo 105 / 107 40% 1 25.05.2027 -
Davide Bartesaghi AC Milan Ativo 125 / 143 40% 1 24.05.2027 -
Zaïd BafdilI Sporting CP Ativo 99 / 109 40% 2 20.05.2027 -
Ibrahim Maza Bayer Leverkusen Ativo 148 / 152 40% 1 16.05.2027 -
Darryl Bakola Padova Ativo 106 / 118 40% 1 16.05.2027 -
Percy Jali Free State Stars Ativo 98 / 100 40% 1 12.05.2027 -
Kazunari Kita Real Sociedad Ativo 101 / 111 40% 3 10.05.2027 -
Jan Bürger Gillingham Ativo 120 / 127 40% 4 05.05.2027 -
Daniel Vernattus Metalist Ativo 95 / 89 40% 2 01.05.2027 -
Oumar Solet Udinese Ativo 159 / 144 40% 1 01.05.2027 -
Mats Wieffer Brighton Ativo 137 / 147 40% 1 01.05.2027 -
Tariq Lamptey Queens Park Rangers Ativo 123 / 137 40% 1 01.05.2027 -
Ryan Sessegnon Fulham Ativo 137 / 141 40% 1 29.04.2027 -
Nicolò Rovella Lazio Ativo 153 / 149 40% 1 29.04.2027 -
André Wolverhampton Ativo 139 / 147 40% 2 28.04.2027 -
Adam Wharton Crystal Palace Ativo 150 / 158 40% 2 28.04.2027 -
Tiago Djaló Besiktas Ativo 146 / 130 40% 1 28.04.2027 -
Alessandro Buongiorno Sassuolo Ativo 151 / 152 40% 2 26.04.2027 -
Nathan Collins Brentford Ativo 139 / 150 40% 2 26.04.2027 -
James Garner Everton Ativo 154 / 155 40% 1 26.04.2027 -
Soungoutou Magassa West Ham United Ativo 136 / 134 40% 3 25.04.2027 -
Ousmane Diomande Nottingham Forest Ativo 150 / 159 40% 1 25.04.2027 -
Milan van Ewijk Mansfield Town Ativo 143 / 123 40% 2 22.04.2027 -
Óscar Mingueza Crystal Palace Ativo 156 / 145 40% 2 22.04.2027 -
Lewis Ferguson Bologna Ativo 144 / 134 40% 3 20.04.2027 -
Jake O'Brien Everton Ativo 157 / 155 40% 1 20.04.2027 -
Florentino Luís Ipswich Town Ativo 147 / 145 40% 3 19.04.2027 -
Edoardo Bove Watford Ativo 129 / 133 40% 1 19.04.2027 -
José Pachuca Puebla Ativo 102 / 111 40% 2 18.04.2027 -
Vasco Santos Oliveirense Ativo 87 / 91 40% 1 18.04.2027 -
Kevin Vazquez Cruz Azul Ativo 141 / 138 40% 2 17.04.2027 -
Bright Arrey-Mbi Braga Ativo 135 / 139 40% 4 17.04.2027 -
Adrien Truffert Bournemouth Ativo 146 / 150 40% 1 17.04.2027 -
Francisco Moura Lusitânia Lourosa Ativo 143 / 132 40% 2 15.04.2027 -
Ethan Galbraith Swansea City Ativo 125 / 128 40% 4 14.04.2027 -
Víctor Gómez Braga Ativo 150 / 140 40% 1 13.04.2027 -
Harry Clarke Preston Ativo 120 / 136 40% 3 12.04.2027 -
Habib Diarra Sunderland Ativo 152 / 140 40% 1 12.04.2027 -
Jesús Orozco Chiquete Cruz Azul Ativo 126 / 129 40% 1 10.04.2027 -
Sikou Niakaté Braga Ativo 149 / 140 40% 4 09.04.2027 -
Callum Doyle Wrexham Ativo 122 / 131 40% 1 09.04.2027 -
David Ozoh Derby County Ativo 118 / 126 40% 1 09.04.2027 -
Ilay Camara Anderlecht Ativo 123 / 133 40% 1 07.04.2027 -
Josh Doig Sassuolo Ativo 132 / 138 40% 1 05.04.2027 -
Rodrigo Pinheiro Famalicao Ativo 122 / 137 40% 1 04.04.2027 -
João Simões Sporting CP Ativo 135 / 146 40% 1 04.04.2027 -
Ronnie Edwards Queens Park Rangers Ativo 126 / 137 40% 1 02.04.2027 -
Joel McGregor Swindon Town Ativo 87 / 101 40% 2 01.04.2027 -
Jacques Ekomié Wrexham Ativo 138 / 131 40% 2 01.04.2027 -
Khalis Merah Toulouse FC Ativo 114 / 137 40% 1 01.04.2027 -
Leif Davis Ipswich Town Ativo 130 / 136 40% 1 01.04.2027 -
Sidny Lopes Cabral Trabzonspor Ativo 141 / 124 40% 1 31.03.2027 -
Nicolás Fernández Mercau Shakhtar Ativo 145 / 128 40% 1 29.03.2027 Mais informações
Jordan Holsgrove Estoril Praia Ativo 132 / 129 40% 1 29.03.2027 -
Max Bird Birmingham Ativo 122 / 133 40% 1 25.03.2027 -
Imrân Louza Watford Ativo 143 / 133 40% 1 24.03.2027 -
James Dornelly Peterborough United Ativo 94 / 99 40% 1 24.03.2027 -
Noah Sadiki Sunderland Ativo 133 / 149 40% 1 22.03.2027 -
Shea Charles Southampton Ativo 140 / 132 40% 1 20.03.2027 -
Matvey Kislyak CSKA Moscow Ativo 139 / 144 40% 1 20.03.2027 -
Rayhan Momade Sporting CP Ativo 91 / 95 40% 1 20.03.2027 -
Oliver Skipp Leicester City Ativo 138 / 140 40% 1 17.03.2027 -